Time;durP1;ratioP1;P1;durP2;ratioP2;P2;SDS_P1;SDS_P2;PMS_P1;PMS_P2;Temp;Humidity;BMP_temperature;BMP_pressure;BME280_temperature;BME280_humidity;BME280_pressure;Samples;Min_cycle;Max_cycle;Signal;HPM_P1;HPM_P2
2023/01/01 00:01:29;;;;;;;;;;;12.30;99.90;;;;;;5120491;28;19912;-53
2023/01/01 00:03:56;;;;;;;;;;;12.40;99.90;;;;;;5120673;28;19975;-49
2023/01/01 00:06:21;;;;;;;;;;;12.30;99.90;;;;;;5120948;28;19914;-52
2023/01/01 00:08:47;;;;;;;;;;;12.30;99.90;;;;;;5120704;28;20003;-49
2023/01/01 00:11:13;;;;;;;;;;;12.30;99.90;;;;;;5120725;28;19926;-52
2023/01/01 00:13:40;;;;;;;;;;;12.30;99.90;;;;;;5120477;28;19961;-49
2023/01/01 00:16:06;;;;;;;;;;;12.30;99.90;;;;;;5120693;28;19908;-53
2023/01/01 00:18:32;;;;;;;;;;;12.30;99.90;;;;;;5120280;28;19918;-53
2023/01/01 00:21:05;;;;;;;;;;;12.30;99.90;;;;;;5120489;28;19912;-53
2023/01/01 00:23:30;;;;;;;;;;;12.30;99.90;;;;;;5120489;28;20438;-51
2023/01/01 00:25:56;;;;;;;;;;;12.20;99.90;;;;;;5120404;28;20362;-53
2023/01/01 00:28:22;;;;;;;;;;;12.20;99.90;;;;;;5101862;28;19907;-54
2023/01/01 00:30:48;;;;;;;;;;;12.20;99.90;;;;;;5120556;28;19999;-53
2023/01/01 00:33:13;;;;;;;;;;;12.20;99.90;;;;;;5120263;28;20010;-49
2023/01/01 00:35:39;;;;;;;;;;;12.30;99.90;;;;;;5120192;28;19908;-54
2023/01/01 00:38:05;;;;;;;;;;;12.30;99.90;;;;;;5119736;28;20390;-54
2023/01/01 00:40:31;;;;;;;;;;;12.30;99.90;;;;;;5120099;28;19914;-52
2023/01/01 00:42:57;;;;;;;;;;;12.30;99.90;;;;;;5101498;28;19908;-54
2023/01/01 00:45:23;;;;;;;;;;;12.30;99.90;;;;;;5119805;28;19908;-50
2023/01/01 00:47:51;;;;;;;;;;;12.30;99.90;;;;;;5119956;28;19908;-54
2023/01/01 00:50:17;;;;;;;;;;;12.30;99.90;;;;;;5119592;28;19915;-53
2023/01/01 00:52:43;;;;;;;;;;;12.30;99.90;;;;;;5119848;28;19914;-54
2023/01/01 00:55:09;;;;;;;;;;;12.20;99.90;;;;;;5119830;28;19908;-53
2023/01/01 00:57:35;;;;;;;;;;;12.30;99.90;;;;;;5119784;28;20014;-55
2023/01/01 01:00:00;;;;;;;;;;;12.30;99.90;;;;;;5119460;28;19922;-53
2023/01/01 01:02:26;;;;;;;;;;;12.20;99.90;;;;;;5119610;28;19920;-53
2023/01/01 01:04:51;;;;;;;;;;;12.20;99.90;;;;;;5101129;28;20367;-54
2023/01/01 01:07:17;;;;;;;;;;;12.30;99.90;;;;;;5119417;28;19911;-51
2023/01/01 01:09:42;;;;;;;;;;;12.30;99.90;;;;;;5119546;28;19946;-52
2023/01/01 01:12:08;;;;;;;;;;;12.30;99.90;;;;;;5119320;28;20342;-51
2023/01/01 01:14:34;;;;;;;;;;;12.30;99.90;;;;;;5119020;28;19908;-55
2023/01/01 01:16:59;;;;;;;;;;;12.30;99.90;;;;;;5119399;28;19908;-55
2023/01/01 01:19:25;;;;;;;;;;;12.30;99.90;;;;;;5119202;28;19908;-51
2023/01/01 01:21:51;;;;;;;;;;;12.30;99.90;;;;;;5119628;28;20270;-52
2023/01/01 01:24:16;;;;;;;;;;;12.30;99.90;;;;;;5119121;28;19929;-52
2023/01/01 01:26:42;;;;;;;;;;;12.40;99.90;;;;;;5119336;28;19987;-50
2023/01/01 01:29:08;;;;;;;;;;;12.40;99.90;;;;;;5100758;28;19951;-53
2023/01/01 01:31:34;;;;;;;;;;;12.30;99.90;;;;;;5119290;28;19908;-50
2023/01/01 01:33:59;;;;;;;;;;;12.30;99.90;;;;;;5118957;28;20347;-49
2023/01/01 01:36:25;;;;;;;;;;;12.30;99.90;;;;;;5119131;28;19912;-50
2023/01/01 01:38:51;;;;;;;;;;;12.30;99.90;;;;;;5118923;28;19919;-53
2023/01/01 01:41:19;;;;;;;;;;;12.30;99.90;;;;;;5119032;28;19954;-49
2023/01/01 01:43:48;;;;;;;;;;;12.40;99.90;;;;;;5118819;28;20412;-52
2023/01/01 01:46:16;;;;;;;;;;;12.40;99.90;;;;;;5118961;28;19994;-49
2023/01/01 01:48:47;;;;;;;;;;;12.30;99.90;;;;;;5118935;28;20252;-52
2023/01/01 01:51:14;;;;;;;;;;;12.30;99.90;;;;;;5118513;28;19908;-52
2023/01/01 01:53:42;;;;;;;;;;;12.30;99.90;;;;;;5118682;28;19911;-49
2023/01/01 01:56:11;;;;;;;;;;;12.30;99.90;;;;;;5118932;28;20278;-54
2023/01/01 01:58:37;;;;;;;;;;;12.30;99.90;;;;;;5118682;28;19922;-54
2023/01/01 02:01:03;;;;;;;;;;;12.30;99.90;;;;;;5118834;28;20010;-52
2023/01/01 02:03:42;;;;;;;;;;;12.30;99.90;;;;;;5118244;28;19984;-53
2023/01/01 02:06:08;;;;;;;;;;;12.30;99.90;;;;;;5118977;28;19943;-54
2023/01/01 02:08:34;;;;;;;;;;;12.30;99.90;;;;;;5119079;28;20263;-47
2023/01/01 02:11:00;;;;;;;;;;;12.30;99.90;;;;;;5118467;28;19908;-51
2023/01/01 02:13:25;;;;;;;;;;;12.30;99.90;;;;;;5100120;28;20290;-53
2023/01/01 02:15:57;;;;;;;;;;;12.30;99.90;;;;;;5118525;28;19957;-49
2023/01/01 02:18:24;;;;;;;;;;;12.30;99.90;;;;;;5118635;28;19919;-53
2023/01/01 02:20:57;;;;;;;;;;;12.30;99.90;;;;;;5118478;28;19969;-50
2023/01/01 02:23:43;;;;;;;;;;;12.30;99.90;;;;;;5118612;28;19907;-52
2023/01/01 02:26:21;;;;;;;;;;;12.30;99.90;;;;;;5121223;28;19955;-55
2023/01/01 02:29:00;;;;;;;;;;;12.30;99.90;;;;;;5122508;28;20298;-51
2023/01/01 02:31:27;;;;;;;;;;;12.30;99.90;;;;;;5122466;28;19907;-52
2023/01/01 02:33:55;;;;;;;;;;;12.40;99.90;;;;;;5122696;28;19908;-50
2023/01/01 02:36:21;;;;;;;;;;;12.40;99.90;;;;;;5122358;28;19908;-49
2023/01/01 02:38:50;;;;;;;;;;;12.40;99.90;;;;;;5122435;28;19919;-52
2023/01/01 02:41:21;;;;;;;;;;;12.30;99.90;;;;;;5122473;28;20278;-47
2023/01/01 02:43:47;;;;;;;;;;;12.40;99.90;;;;;;5122404;28;19915;-52
2023/01/01 02:46:12;;;;;;;;;;;12.40;99.90;;;;;;5122357;28;19908;-53
2023/01/01 02:48:42;;;;;;;;;;;12.40;99.90;;;;;;5122321;28;20355;-53
2023/01/01 02:51:26;;;;;;;;;;;12.40;99.90;;;;;;5122326;28;19908;-49
2023/01/01 02:53:58;;;;;;;;;;;12.30;99.90;;;;;;5122017;28;19994;-53
2023/01/01 02:56:29;;;;;;;;;;;12.40;99.90;;;;;;5122237;28;19955;-51
2023/01/01 03:01:47;;;;;;;;;;;12.40;99.90;;;;;;5121585;28;19938;-52
2023/01/01 03:04:28;;;;;;;;;;;12.30;99.90;;;;;;5121848;28;20316;-50
2023/01/01 03:07:00;;;;;;;;;;;12.30;99.90;;;;;;5121790;28;19957;-51
2023/01/01 03:09:44;;;;;;;;;;;12.40;99.90;;;;;;5121931;28;19908;-54
2023/01/01 03:12:13;;;;;;;;;;;12.30;99.90;;;;;;5122450;28;19912;-50
2023/01/01 03:14:41;;;;;;;;;;;12.30;99.90;;;;;;5121871;28;19908;-52
2023/01/01 03:17:09;;;;;;;;;;;12.30;99.90;;;;;;5121517;28;20276;-54
2023/01/01 03:19:37;;;;;;;;;;;12.30;99.90;;;;;;5122041;28;19912;-53
2023/01/01 03:22:05;;;;;;;;;;;12.30;99.90;;;;;;5121408;28;20328;-52
2023/01/01 03:24:31;;;;;;;;;;;12.30;99.90;;;;;;5121705;28;19951;-53
2023/01/01 03:26:58;;;;;;;;;;;12.30;99.90;;;;;;5121340;28;19957;-49
2023/01/01 03:29:24;;;;;;;;;;;12.30;99.90;;;;;;5121856;28;19915;-49
2023/01/01 03:31:52;;;;;;;;;;;12.20;99.90;;;;;;5121423;28;19915;-52
2023/01/01 03:34:20;;;;;;;;;;;12.30;99.90;;;;;;5121728;28;19933;-53
2023/01/01 03:36:48;;;;;;;;;;;12.20;99.90;;;;;;5120620;28;19907;-48
2023/01/01 03:39:19;;;;;;;;;;;12.20;99.90;;;;;;5102732;28;19934;-50
2023/01/01 03:41:47;;;;;;;;;;;12.20;99.90;;;;;;5121272;28;19908;-52
2023/01/01 03:44:34;;;;;;;;;;;12.20;99.90;;;;;;5121039;28;20361;-54
2023/01/01 03:47:00;;;;;;;;;;;12.20;99.90;;;;;;5120897;28;20014;-53
2023/01/01 03:49:25;;;;;;;;;;;12.20;99.90;;;;;;5102563;28;19950;-53
2023/01/01 03:51:51;;;;;;;;;;;12.20;99.90;;;;;;5121121;28;19937;-54
2023/01/01 03:54:22;;;;;;;;;;;12.20;99.90;;;;;;5120859;28;19915;-52
2023/01/01 03:56:53;;;;;;;;;;;12.20;99.90;;;;;;5102366;28;19912;-50
2023/01/01 03:59:32;;;;;;;;;;;12.20;99.90;;;;;;5121089;28;19911;-51
2023/01/01 04:01:59;;;;;;;;;;;12.20;99.90;;;;;;5120702;28;20307;-50
2023/01/01 04:04:25;;;;;;;;;;;12.20;99.90;;;;;;5121140;28;19915;-51
2023/01/01 04:06:51;;;;;;;;;;;12.20;99.90;;;;;;5120665;28;19908;-54
2023/01/01 04:09:20;;;;;;;;;;;12.20;99.90;;;;;;5121027;28;19908;-52
2023/01/01 04:12:03;;;;;;;;;;;12.20;99.90;;;;;;5120281;28;20454;-49
2023/01/01 04:14:32;;;;;;;;;;;12.20;99.90;;;;;;5120272;28;19908;-53
2023/01/01 04:16:58;;;;;;;;;;;12.20;99.90;;;;;;5120540;28;19912;-49
2023/01/01 04:19:24;;;;;;;;;;;12.20;99.90;;;;;;5120548;28;20414;-50
2023/01/01 04:21:49;;;;;;;;;;;12.20;99.90;;;;;;5120352;28;19974;-52
2023/01/01 04:24:15;;;;;;;;;;;12.20;99.90;;;;;;5120637;28;19907;-51
2023/01/01 04:26:40;;;;;;;;;;;12.10;99.90;;;;;;5120452;28;19912;-55
2023/01/01 04:29:06;;;;;;;;;;;12.20;99.90;;;;;;5120193;28;19953;-51
2023/01/01 04:31:33;;;;;;;;;;;12.20;99.90;;;;;;5120601;28;19908;-50
2023/01/01 04:33:58;;;;;;;;;;;12.20;99.90;;;;;;5120094;28;19960;-53
2023/01/01 04:36:24;;;;;;;;;;;12.10;99.90;;;;;;5119850;28;19911;-53
2023/01/01 04:38:49;;;;;;;;;;;12.10;99.90;;;;;;5120167;28;19912;-51
2023/01/01 04:41:15;;;;;;;;;;;12.10;99.90;;;;;;5120207;28;19907;-53
2023/01/01 04:43:41;;;;;;;;;;;12.10;99.90;;;;;;5119867;28;19915;-52
2023/01/01 04:46:06;;;;;;;;;;;12.10;99.90;;;;;;5120102;28;19907;-53
2023/01/01 04:48:34;;;;;;;;;;;12.10;99.90;;;;;;5118846;28;19915;-54
2023/01/01 04:51:01;;;;;;;;;;;12.10;99.90;;;;;;5119934;28;19931;-51
2023/01/01 04:53:28;;;;;;;;;;;12.10;99.90;;;;;;5119913;28;19914;-52
2023/01/01 04:55:53;;;;;;;;;;;12.10;99.90;;;;;;5119938;28;19907;-52
2023/01/01 04:58:19;;;;;;;;;;;12.00;99.90;;;;;;5119527;28;19965;-51
2023/01/01 05:00:50;;;;;;;;;;;12.10;99.90;;;;;;5119714;28;19931;-51
2023/01/01 05:03:17;;;;;;;;;;;12.00;99.90;;;;;;5118829;28;19951;-53
2023/01/01 05:05:42;;;;;;;;;;;12.00;99.90;;;;;;5119660;28;19908;-55
2023/01/01 05:08:08;;;;;;;;;;;12.00;99.90;;;;;;5119562;28;19912;-51
2023/01/01 05:10:34;;;;;;;;;;;12.00;99.90;;;;;;5119187;28;19955;-50
2023/01/01 05:12:59;;;;;;;;;;;11.90;99.90;;;;;;5119256;28;19912;-51
2023/01/01 05:15:25;;;;;;;;;;;12.00;99.90;;;;;;5101305;28;19908;-49
2023/01/01 05:17:51;;;;;;;;;;;11.90;99.90;;;;;;5119406;28;19915;-54
2023/01/01 05:20:16;;;;;;;;;;;11.90;99.90;;;;;;5119216;28;19986;-51
2023/01/01 05:22:44;;;;;;;;;;;11.90;99.90;;;;;;5118950;28;19949;-54
2023/01/01 05:25:09;;;;;;;;;;;11.90;99.90;;;;;;5119427;28;19912;-53
2023/01/01 05:27:35;;;;;;;;;;;11.90;99.90;;;;;;5119048;28;19929;-54
2023/01/01 05:30:01;;;;;;;;;;;11.90;99.90;;;;;;5119268;28;19911;-52
2023/01/01 05:32:27;;;;;;;;;;;11.90;99.90;;;;;;5118808;28;19911;-48
2023/01/01 05:34:53;;;;;;;;;;;11.90;99.90;;;;;;5118548;28;19908;-50
2023/01/01 05:37:18;;;;;;;;;;;11.90;99.90;;;;;;5118573;28;20021;-50
2023/01/01 05:39:44;;;;;;;;;;;11.80;99.90;;;;;;5118946;28;19908;-51
2023/01/01 05:42:09;;;;;;;;;;;11.90;99.90;;;;;;5100668;28;20339;-53
2023/01/01 05:44:35;;;;;;;;;;;11.90;99.90;;;;;;5118912;28;19908;-50
2023/01/01 05:47:01;;;;;;;;;;;11.80;99.90;;;;;;5119003;28;19907;-49
2023/01/01 05:49:27;;;;;;;;;;;11.80;99.90;;;;;;5118808;28;19931;-54
2023/01/01 05:51:52;;;;;;;;;;;11.90;99.90;;;;;;5118424;28;19960;-54
2023/01/01 05:54:18;;;;;;;;;;;11.90;99.90;;;;;;5118737;28;20010;-54
2023/01/01 05:56:44;;;;;;;;;;;11.90;99.90;;;;;;5118435;28;19908;-54
2023/01/01 05:59:09;;;;;;;;;;;11.90;99.90;;;;;;5118541;28;20315;-54
2023/01/01 06:01:35;;;;;;;;;;;11.90;99.90;;;;;;5118483;28;19922;-52
2023/01/01 06:04:01;;;;;;;;;;;11.90;99.90;;;;;;5118451;28;19908;-51
2023/01/01 06:06:28;;;;;;;;;;;11.90;99.90;;;;;;5118842;28;19915;-51
2023/01/01 06:08:57;;;;;;;;;;;11.90;99.90;;;;;;5118621;28;20358;-55
2023/01/01 06:11:23;;;;;;;;;;;11.90;99.90;;;;;;5118762;28;20368;-54
2023/01/01 06:13:52;;;;;;;;;;;11.90;99.90;;;;;;5118115;28;19907;-53
2023/01/01 06:16:18;;;;;;;;;;;11.90;99.90;;;;;;5118233;28;20064;-50
2023/01/01 06:18:44;;;;;;;;;;;11.90;99.90;;;;;;5118624;28;19966;-54
2023/01/01 06:21:10;;;;;;;;;;;11.90;99.90;;;;;;5118537;28;19908;-54
2023/01/01 06:23:36;;;;;;;;;;;11.90;99.90;;;;;;5118316;28;19908;-53
2023/01/01 06:26:05;;;;;;;;;;;12.00;99.90;;;;;;5100352;28;20390;-53
2023/01/01 06:28:30;;;;;;;;;;;12.00;99.90;;;;;;5118306;28;19940;-52
2023/01/01 06:31:03;;;;;;;;;;;12.00;99.90;;;;;;5118455;28;19912;-55
2023/01/01 06:33:29;;;;;;;;;;;12.00;99.90;;;;;;5118530;28;19908;-55
2023/01/01 06:35:55;;;;;;;;;;;12.00;99.90;;;;;;5118112;28;19929;-51
2023/01/01 06:38:21;;;;;;;;;;;12.00;99.90;;;;;;5118169;28;19988;-50
2023/01/01 06:41:03;;;;;;;;;;;12.00;99.90;;;;;;5118069;28;19908;-53
2023/01/01 06:43:29;;;;;;;;;;;12.00;99.90;;;;;;5117918;28;19907;-52
2023/01/01 06:45:59;;;;;;;;;;;12.10;99.90;;;;;;5118136;28;19908;-52
2023/01/01 06:48:24;;;;;;;;;;;12.10;99.90;;;;;;5118151;28;19994;-52
2023/01/01 06:50:50;;;;;;;;;;;12.10;99.90;;;;;;5117917;28;19995;-53
2023/01/01 06:53:15;;;;;;;;;;;12.10;99.90;;;;;;5118416;28;19907;-55
2023/01/01 06:55:47;;;;;;;;;;;12.10;99.90;;;;;;5118108;28;19996;-55
2023/01/01 06:58:13;;;;;;;;;;;12.20;99.90;;;;;;5117586;28;19918;-54
2023/01/01 07:00:38;;;;;;;;;;;12.20;99.90;;;;;;5118072;28;20461;-54
2023/01/01 07:03:04;;;;;;;;;;;12.20;99.90;;;;;;5117468;28;20003;-54
2023/01/01 07:05:29;;;;;;;;;;;12.10;99.90;;;;;;5117489;28;20315;-51
2023/01/01 07:07:55;;;;;;;;;;;12.20;99.90;;;;;;5117430;28;19963;-54
2023/01/01 07:10:21;;;;;;;;;;;12.20;99.90;;;;;;5117859;28;19911;-51
2023/01/01 07:12:46;;;;;;;;;;;12.20;99.90;;;;;;5121039;28;19908;-53
2023/01/01 07:15:12;;;;;;;;;;;12.20;99.90;;;;;;5121150;28;19934;-49
2023/01/01 07:17:37;;;;;;;;;;;12.20;99.90;;;;;;5121625;28;19965;-53
2023/01/01 07:20:03;;;;;;;;;;;12.20;99.90;;;;;;5121139;28;19915;-54
2023/01/01 07:22:29;;;;;;;;;;;12.10;99.90;;;;;;5121416;28;20321;-50
2023/01/01 07:24:54;;;;;;;;;;;12.10;99.90;;;;;;5121260;28;19908;-53
2023/01/01 07:27:20;;;;;;;;;;;12.20;99.90;;;;;;5121283;28;19998;-51
2023/01/01 07:29:46;;;;;;;;;;;12.20;99.90;;;;;;5120953;28;19952;-54
2023/01/01 07:32:13;;;;;;;;;;;12.20;99.90;;;;;;5120967;28;20371;-54
2023/01/01 07:34:38;;;;;;;;;;;12.20;99.90;;;;;;5121299;28;19912;-53
2023/01/01 07:37:04;;;;;;;;;;;12.20;99.90;;;;;;5121095;28;20387;-55
2023/01/01 07:39:29;;;;;;;;;;;12.20;99.90;;;;;;5120796;28;20576;-50
2023/01/01 07:41:55;;;;;;;;;;;12.20;99.90;;;;;;5121253;28;19908;-53
2023/01/01 07:44:20;;;;;;;;;;;12.20;99.90;;;;;;5120653;28;19950;-53
2023/01/01 07:46:46;;;;;;;;;;;12.10;99.90;;;;;;5102351;28;19908;-54
2023/01/01 07:49:12;;;;;;;;;;;12.20;99.90;;;;;;5120522;28;19914;-53
2023/01/01 07:51:37;;;;;;;;;;;12.20;99.90;;;;;;5120708;28;19912;-50
2023/01/01 07:54:03;;;;;;;;;;;12.20;99.90;;;;;;5120612;28;19908;-51
2023/01/01 07:56:28;;;;;;;;;;;12.20;99.90;;;;;;5120802;28;19969;-53
2023/01/01 07:58:54;;;;;;;;;;;12.20;99.90;;;;;;5120508;28;19938;-52
2023/01/01 08:01:20;;;;;;;;;;;12.20;99.90;;;;;;5120614;28;19933;-51
2023/01/01 08:03:49;;;;;;;;;;;12.20;99.90;;;;;;5102147;28;19911;-53
2023/01/01 08:06:14;;;;;;;;;;;12.20;99.90;;;;;;5101910;28;19912;-53
2023/01/01 08:08:40;;;;;;;;;;;12.20;99.90;;;;;;5120440;28;19957;-52
2023/01/01 08:11:06;;;;;;;;;;;12.30;99.90;;;;;;5120020;28;19908;-55
2023/01/01 08:13:31;;;;;;;;;;;12.30;99.90;;;;;;5120098;28;19957;-53
2023/01/01 08:15:57;;;;;;;;;;;12.30;99.90;;;;;;5101708;28;19999;-53
2023/01/01 08:18:23;;;;;;;;;;;12.20;99.90;;;;;;5120192;28;19911;-55
2023/01/01 08:20:49;;;;;;;;;;;12.30;99.90;;;;;;5120210;28;19914;-51
2023/01/01 08:23:14;;;;;;;;;;;12.30;99.90;;;;;;5120046;28;19908;-53
2023/01/01 08:25:40;;;;;;;;;;;12.30;99.90;;;;;;5120057;28;19945;-52
2023/01/01 08:28:05;;;;;;;;;;;12.20;99.90;;;;;;5119882;28;19931;-50
2023/01/01 08:30:31;;;;;;;;;;;12.30;99.90;;;;;;5120012;28;19947;-55
2023/01/01 08:32:57;;;;;;;;;;;12.20;99.90;;;;;;5119757;28;19972;-53
2023/01/01 08:35:22;;;;;;;;;;;12.20;99.90;;;;;;5119935;28;19908;-53
2023/01/01 08:37:48;;;;;;;;;;;12.20;99.90;;;;;;5119977;28;20460;-54
2023/01/01 08:40:13;;;;;;;;;;;12.20;99.90;;;;;;5120086;28;20386;-53
2023/01/01 08:42:39;;;;;;;;;;;12.20;99.90;;;;;;5119626;28;19908;-52
2023/01/01 08:45:05;;;;;;;;;;;12.20;99.90;;;;;;5119465;28;19982;-53
2023/01/01 08:47:31;;;;;;;;;;;12.20;99.90;;;;;;5119680;28;19907;-50
2023/01/01 08:49:56;;;;;;;;;;;12.30;99.90;;;;;;5119653;28;19976;-51
2023/01/01 08:52:22;;;;;;;;;;;12.30;99.90;;;;;;5119589;28;19942;-50
2023/01/01 08:54:48;;;;;;;;;;;12.30;99.90;;;;;;5119370;28;20015;-49
2023/01/01 08:57:14;;;;;;;;;;;12.20;99.90;;;;;;5119094;28;19951;-50
2023/01/01 08:59:39;;;;;;;;;;;12.20;99.90;;;;;;5119099;28;20343;-53
2023/01/01 09:02:05;;;;;;;;;;;12.30;99.90;;;;;;5119371;28;19985;-55
2023/01/01 09:04:31;;;;;;;;;;;12.20;99.90;;;;;;5119618;28;20380;-54
2023/01/01 09:06:56;;;;;;;;;;;12.60;99.90;;;;;;5119145;28;20390;-50
2023/01/01 09:09:22;;;;;;;;;;;12.30;99.90;;;;;;5119266;28;20255;-53
2023/01/01 09:11:52;;;;;;;;;;;12.20;99.90;;;;;;5119215;28;19912;-52
2023/01/01 09:14:19;;;;;;;;;;;12.20;99.90;;;;;;5119387;28;19919;-51
2023/01/01 09:16:44;;;;;;;;;;;12.20;99.90;;;;;;5118991;28;19991;-52
2023/01/01 09:19:10;;;;;;;;;;;12.20;99.90;;;;;;5118427;28;19969;-51
2023/01/01 09:21:36;;;;;;;;;;;12.10;99.90;;;;;;5119185;28;19953;-55
2023/01/01 09:24:01;;;;;;;;;;;12.10;99.90;;;;;;5118627;28;19908;-49
2023/01/01 09:26:27;;;;;;;;;;;12.10;99.90;;;;;;5119210;28;19911;-54
2023/01/01 09:28:53;;;;;;;;;;;12.10;99.90;;;;;;5118605;28;19969;-49
2023/01/01 09:31:18;;;;;;;;;;;12.10;99.90;;;;;;5119000;28;20382;-54
2023/01/01 09:33:44;;;;;;;;;;;12.00;99.90;;;;;;5118085;28;20396;-50
2023/01/01 09:36:22;;;;;;;;;;;12.00;99.90;;;;;;5118776;28;19908;-54
2023/01/01 09:38:48;;;;;;;;;;;12.00;99.90;;;;;;5118482;28;20375;-52
2023/01/01 09:41:32;;;;;;;;;;;12.00;99.90;;;;;;5118518;28;19908;-52
2023/01/01 09:44:10;;;;;;;;;;;11.90;99.90;;;;;;5118545;28;19912;-49
2023/01/01 09:46:36;;;;;;;;;;;11.80;99.90;;;;;;5118393;28;20379;-50
2023/01/01 09:49:05;;;;;;;;;;;11.70;99.90;;;;;;5118747;28;19930;-53
2023/01/01 09:51:34;;;;;;;;;;;11.50;99.90;;;;;;5118682;28;19936;-50
2023/01/01 09:54:05;;;;;;;;;;;11.50;99.90;;;;;;5118454;28;20306;-52
2023/01/01 09:56:33;;;;;;;;;;;11.40;99.90;;;;;;5118475;28;20375;-51
2023/01/01 09:58:59;;;;;;;;;;;11.40;99.90;;;;;;5117905;28;19916;-52
2023/01/01 10:01:37;;;;;;;;;;;11.30;99.90;;;;;;5118006;28;19915;-51
2023/01/01 10:04:16;;;;;;;;;;;11.30;99.90;;;;;;5118198;28;20260;-50
2023/01/01 10:06:46;;;;;;;;;;;11.30;99.90;;;;;;5118161;28;20424;-54
2023/01/01 10:09:12;;;;;;;;;;;11.20;99.90;;;;;;5118337;28;19953;-54
2023/01/01 10:11:49;;;;;;;;;;;11.20;99.90;;;;;;5117959;28;19912;-54
2023/01/01 10:14:20;;;;;;;;;;;11.20;99.90;;;;;;5118296;28;19908;-52
2023/01/01 10:16:48;;;;;;;;;;;11.20;99.90;;;;;;5118375;28;19914;-53
2023/01/01 10:19:33;;;;;;;;;;;11.20;99.90;;;;;;5118029;28;19912;-53
2023/01/01 10:22:07;;;;;;;;;;;11.30;99.90;;;;;;5118030;28;19916;-53
2023/01/01 10:24:44;;;;;;;;;;;11.30;99.90;;;;;;5118008;28;19907;-54
2023/01/01 10:27:29;;;;;;;;;;;11.30;99.90;;;;;;5118171;28;19914;-54
2023/01/01 10:29:56;;;;;;;;;;;11.30;99.90;;;;;;5118060;28;19907;-50
2023/01/01 10:32:29;;;;;;;;;;;11.30;99.90;;;;;;5117700;28;19908;-53
2023/01/01 10:34:56;;;;;;;;;;;11.30;99.90;;;;;;5118030;28;19908;-53
2023/01/01 10:37:21;;;;;;;;;;;11.30;99.90;;;;;;5117869;28;19954;-54
2023/01/01 10:39:47;;;;;;;;;;;11.30;99.90;;;;;;5118615;28;19908;-54
2023/01/01 10:42:14;;;;;;;;;;;11.30;99.90;;;;;;5117973;28;20375;-50
2023/01/01 10:44:40;;;;;;;;;;;11.30;99.90;;;;;;5117320;28;19907;-51
2023/01/01 10:47:14;;;;;;;;;;;11.20;99.90;;;;;;5120191;28;20282;-53
2023/01/01 10:49:59;;;;;;;;;;;11.20;99.90;;;;;;5121948;28;19912;-54
2023/01/01 10:52:35;;;;;;;;;;;11.10;99.90;;;;;;5121488;28;19942;-52
2023/01/01 10:55:01;;;;;;;;;;;11.10;99.90;;;;;;5121661;28;19914;-51
2023/01/01 10:57:26;;;;;;;;;;;11.00;99.90;;;;;;5121475;28;20363;-52
2023/01/01 10:59:52;;;;;;;;;;;11.00;99.90;;;;;;5121551;28;19908;-51
2023/01/01 11:02:20;;;;;;;;;;;11.00;99.90;;;;;;5121258;28;19924;-52
2023/01/01 11:04:46;;;;;;;;;;;11.00;99.90;;;;;;5121386;28;19908;-49
2023/01/01 11:07:20;;;;;;;;;;;11.00;99.90;;;;;;5121851;28;19999;-52
2023/01/01 11:09:49;;;;;;;;;;;11.10;99.90;;;;;;5121381;28;19930;-52
2023/01/01 11:12:22;;;;;;;;;;;11.10;99.90;;;;;;5121782;28;19908;-53
2023/01/01 11:14:49;;;;;;;;;;;11.10;99.90;;;;;;5121174;28;19914;-48
2023/01/01 11:17:22;;;;;;;;;;;11.10;99.90;;;;;;5121371;28;19933;-52
2023/01/01 11:19:49;;;;;;;;;;;11.10;99.90;;;;;;5121049;28;20619;-53
2023/01/01 11:22:34;;;;;;;;;;;11.00;99.90;;;;;;5121625;28;19908;-51
2023/01/01 11:25:01;;;;;;;;;;;11.30;99.90;;;;;;5121040;28;20572;-52
2023/01/01 11:27:27;;;;;;;;;;;11.10;99.90;;;;;;5121197;28;20391;-53
2023/01/01 11:30:12;;;;;;;;;;;11.20;99.90;;;;;;5121160;28;19943;-51
2023/01/01 11:32:38;;;;;;;;;;;11.10;99.90;;;;;;5121114;28;20332;-52
2023/01/01 11:35:08;;;;;;;;;;;11.10;99.90;;;;;;5120920;28;19956;-51
2023/01/01 11:37:37;;;;;;;;;;;11.20;99.90;;;;;;5120958;28;19923;-51
2023/01/01 11:40:04;;;;;;;;;;;11.20;99.90;;;;;;5121156;28;19987;-49
2023/01/01 11:42:31;;;;;;;;;;;11.20;99.90;;;;;;5120781;28;19912;-53
2023/01/01 11:44:59;;;;;;;;;;;11.20;99.90;;;;;;5120867;28;19934;-52
2023/01/01 11:47:36;;;;;;;;;;;11.20;99.90;;;;;;5120661;28;20365;-51
2023/01/01 11:50:07;;;;;;;;;;;11.20;99.90;;;;;;5120781;28;19908;-53
2023/01/01 11:52:33;;;;;;;;;;;11.30;99.90;;;;;;5120267;28;19908;-51
2023/01/01 11:55:22;;;;;;;;;;;11.30;99.90;;;;;;5102089;28;20342;-53
2023/01/01 11:58:11;;;;;;;;;;;11.30;99.90;;;;;;5114066;28;19912;-53
2023/01/01 12:00:36;;;;;;;;;;;11.10;99.90;;;;;;5114455;28;19908;-52
2023/01/01 12:03:05;;;;;;;;;;;11.20;99.90;;;;;;5120180;28;19965;-50
2023/01/01 12:05:40;;;;;;;;;;;11.30;99.90;;;;;;5101972;28;19995;-54
2023/01/01 12:08:08;;;;;;;;;;;11.20;99.90;;;;;;5120347;28;19908;-55
2023/01/01 12:10:44;;;;;;;;;;;11.20;99.90;;;;;;5120075;28;19908;-53
2023/01/01 12:13:15;;;;;;;;;;;11.20;99.90;;;;;;5120262;28;19947;-48
2023/01/01 12:16:01;;;;;;;;;;;11.20;99.90;;;;;;5120520;28;20363;-55
2023/01/01 12:18:32;;;;;;;;;;;11.20;99.90;;;;;;5119478;28;19912;-53
2023/01/01 12:21:00;;;;;;;;;;;11.30;99.90;;;;;;5120027;28;19912;-47
2023/01/01 12:23:26;;;;;;;;;;;11.30;99.90;;;;;;5120114;28;19934;-53
2023/01/01 12:26:00;;;;;;;;;;;11.40;99.90;;;;;;5120194;28;19907;-53
2023/01/01 12:28:28;;;;;;;;;;;11.40;99.90;;;;;;5101961;28;19914;-49
2023/01/01 12:31:13;;;;;;;;;;;11.50;99.90;;;;;;5119852;28;19908;-52
2023/01/01 12:34:00;;;;;;;;;;;11.60;99.90;;;;;;5119760;28;20357;-52
2023/01/01 12:36:31;;;;;;;;;;;11.60;99.90;;;;;;5119772;28;19908;-50
2023/01/01 12:39:12;;;;;;;;;;;11.60;99.90;;;;;;5119643;28;19912;-52
2023/01/01 12:41:58;;;;;;;;;;;11.60;99.90;;;;;;5119573;28;19918;-52
2023/01/01 12:44:35;;;;;;;;;;;11.60;99.90;;;;;;5119995;28;20405;-51
2023/01/01 12:47:13;;;;;;;;;;;11.70;99.90;;;;;;5119542;28;19939;-53
2023/01/01 12:49:48;;;;;;;;;;;11.60;99.90;;;;;;5119595;28;19918;-53
2023/01/01 12:52:25;;;;;;;;;;;11.70;99.90;;;;;;5119496;28;20284;-54
2023/01/01 12:54:50;;;;;;;;;;;11.60;99.90;;;;;;5119720;28;19912;-53
2023/01/01 12:57:37;;;;;;;;;;;11.50;99.90;;;;;;5119287;28;19950;-50
2023/01/01 13:00:10;;;;;;;;;;;11.50;99.90;;;;;;5119360;28;19912;-52
2023/01/01 13:02:40;;;;;;;;;;;11.50;99.90;;;;;;5119170;28;20011;-53
2023/01/01 13:05:17;;;;;;;;;;;11.50;99.90;;;;;;5119114;28;19915;-53
2023/01/01 13:07:45;;;;;;;;;;;11.50;99.90;;;;;;5119524;28;19979;-51
2023/01/01 13:10:23;;;;;;;;;;;11.50;99.90;;;;;;5118445;28;19990;-52
2023/01/01 13:12:50;;;;;;;;;;;11.60;99.90;;;;;;5119144;28;20359;-52
2023/01/01 13:15:34;;;;;;;;;;;11.50;99.90;;;;;;5119091;28;19957;-52
2023/01/01 13:18:00;;;;;;;;;;;11.40;99.90;;;;;;5118997;28;20011;-49
2023/01/01 13:20:25;;;;;;;;;;;11.40;99.90;;;;;;5119119;28;19973;-54
2023/01/01 13:22:51;;;;;;;;;;;11.40;99.90;;;;;;5118751;28;19908;-50
2023/01/01 13:25:17;;;;;;;;;;;11.50;99.90;;;;;;5119215;28;20266;-53
2023/01/01 13:28:03;;;;;;;;;;;11.50;99.90;;;;;;5118646;28;19915;-51
2023/01/01 13:30:40;;;;;;;;;;;11.50;99.90;;;;;;5100391;28;19950;-52
2023/01/01 13:33:23;;;;;;;;;;;11.40;99.90;;;;;;5118462;28;19908;-52
2023/01/01 13:36:13;;;;;;;;;;;11.40;99.90;;;;;;5118803;28;19986;-50
2023/01/01 13:38:51;;;;;;;;;;;11.40;99.90;;;;;;5118680;28;19912;-51
2023/01/01 13:41:36;;;;;;;;;;;11.30;99.90;;;;;;5118725;28;19907;-55
2023/01/01 13:44:02;;;;;;;;;;;11.30;99.90;;;;;;5118391;28;19934;-50
2023/01/01 13:46:27;;;;;;;;;;;11.20;99.90;;;;;;5118321;28;19908;-52
2023/01/01 13:48:53;;;;;;;;;;;11.30;99.90;;;;;;5118591;28;19953;-51
2023/01/01 13:51:29;;;;;;;;;;;11.20;99.90;;;;;;5118386;28;20255;-51
2023/01/01 13:54:13;;;;;;;;;;;11.20;99.90;;;;;;5118115;28;20328;-51
2023/01/01 13:56:42;;;;;;;;;;;11.20;99.90;;;;;;5118318;28;19908;-51
2023/01/01 13:59:10;;;;;;;;;;;11.20;99.90;;;;;;5118404;28;19915;-51
2023/01/01 14:01:42;;;;;;;;;;;11.20;99.90;;;;;;5118149;28;19964;-52
2023/01/01 14:04:13;;;;;;;;;;;11.20;99.90;;;;;;5118138;28;19914;-53
2023/01/01 14:06:41;;;;;;;;;;;11.30;99.90;;;;;;5118410;28;19908;-55
2023/01/01 14:09:06;;;;;;;;;;;11.30;99.90;;;;;;5118346;28;19914;-51
2023/01/01 14:11:32;;;;;;;;;;;11.20;99.90;;;;;;5118090;28;19990;-50
2023/01/01 14:13:58;;;;;;;;;;;11.30;99.90;;;;;;5118218;28;19911;-52
2023/01/01 14:16:25;;;;;;;;;;;11.20;99.90;;;;;;5118271;28;19914;-51
2023/01/01 14:18:54;;;;;;;;;;;11.30;99.90;;;;;;5118151;28;19999;-52
2023/01/01 14:21:20;;;;;;;;;;;11.30;99.90;;;;;;5121219;28;19979;-55
2023/01/01 14:23:57;;;;;;;;;;;11.30;99.90;;;;;;5122267;28;19912;-53
2023/01/01 14:26:24;;;;;;;;;;;11.30;99.90;;;;;;5122213;28;19908;-48
2023/01/01 14:28:54;;;;;;;;;;;11.30;99.90;;;;;;5122021;28;19927;-52